Time;durP1;ratioP1;P1;durP2;ratioP2;P2;SDS_P1;SDS_P2;PMS_P1;PMS_P2;Temp;Humidity;BMP_temperature;BMP_pressure;BME280_temperature;BME280_humidity;BME280_pressure;Samples;Min_cycle;Max_cycle;Signal;HPM_P1;HPM_P2
2021/04/04 00:00:57;;;;;;;7.30;5.73;;;;;;;;;;5048759;28;20180;-42
2021/04/04 00:03:23;;;;;;;5.70;5.20;;;;;;;;;;5049169;28;20180;-42
2021/04/04 00:05:48;;;;;;;5.50;4.97;;;;;;;;;;5049504;28;20174;-42
2021/04/04 00:08:13;;;;;;;5.72;5.25;;;;;;;;;;5049160;28;20267;-42
2021/04/04 00:10:38;;;;;;;5.77;5.27;;;;;;;;;;5041699;28;20190;-42
2021/04/04 00:13:03;;;;;;;6.47;5.43;;;;;;;;;;5049339;28;20535;-42
2021/04/04 00:15:29;;;;;;;6.13;5.53;;;;;;;;;;5047643;28;20245;-42
2021/04/04 00:17:54;;;;;;;6.17;5.57;;;;;;;;;;5049332;28;20713;-42
2021/04/04 00:20:19;;;;;;;6.25;5.65;;;;;;;;;;5048492;28;20757;-42
2021/04/04 00:22:45;;;;;;;7.43;6.57;;;;;;;;;;5048296;28;20178;-42
2021/04/04 00:25:11;;;;;;;6.70;6.00;;;;;;;;;;5048952;28;20184;-43
2021/04/04 00:27:37;;;;;;;7.00;6.10;;;;;;;;;;5047862;28;20603;-43
2021/04/04 00:30:09;;;;;;;5.83;5.33;;;;;;;;;;5048691;28;20632;-42
2021/04/04 00:32:34;;;;;;;6.23;5.63;;;;;;;;;;5048339;28;20172;-42
2021/04/04 00:34:59;;;;;;;6.00;5.50;;;;;;;;;;5048010;28;20649;-42
2021/04/04 00:37:24;;;;;;;6.90;5.43;;;;;;;;;;5046515;28;20232;-41
2021/04/04 00:39:50;;;;;;;6.43;5.47;;;;;;;;;;5048235;28;20164;-41
2021/04/04 00:42:15;;;;;;;6.32;5.82;;;;;;;;;;5047680;28;20222;-41
2021/04/04 00:44:40;;;;;;;9.27;5.77;;;;;;;;;;5048009;28;20190;-42
2021/04/04 00:47:05;;;;;;;6.63;5.90;;;;;;;;;;5048973;28;20176;-42
2021/04/04 00:49:30;;;;;;;6.00;5.37;;;;;;;;;;5048191;28;20180;-43
2021/04/04 00:51:56;;;;;;;6.10;5.50;;;;;;;;;;5047955;28;20180;-42
2021/04/04 00:54:21;;;;;;;5.53;5.13;;;;;;;;;;5048496;28;20280;-41
2021/04/04 00:56:46;;;;;;;6.90;5.50;;;;;;;;;;5047087;28;20200;-42
2021/04/04 00:59:12;;;;;;;7.80;5.90;;;;;;;;;;5048112;28;20735;-42
2021/04/04 01:01:37;;;;;;;6.40;5.77;;;;;;;;;;5047007;28;20213;-42
2021/04/04 01:04:02;;;;;;;6.25;5.65;;;;;;;;;;5048003;28;20172;-41
2021/04/04 01:06:28;;;;;;;6.27;5.87;;;;;;;;;;5047313;28;20188;-41
2021/04/04 01:08:53;;;;;;;6.50;5.73;;;;;;;;;;5048319;28;20274;-41
2021/04/04 01:11:21;;;;;;;6.00;5.47;;;;;;;;;;5047804;28;20648;-42
2021/04/04 01:13:55;;;;;;;6.77;6.13;;;;;;;;;;5047180;28;20610;-42
2021/04/04 01:16:29;;;;;;;7.63;6.03;;;;;;;;;;5047340;28;20675;-42
2021/04/04 01:18:58;;;;;;;7.30;5.57;;;;;;;;;;5040056;28;20598;-42
2021/04/04 01:21:32;;;;;;;6.07;5.47;;;;;;;;;;5046358;28;20608;-42
2021/04/04 01:24:01;;;;;;;6.30;5.47;;;;;;;;;;5043375;28;20608;-42
2021/04/04 01:26:32;;;;;;;7.07;6.23;;;;;;;;;;5047084;28;20601;-42
2021/04/04 01:28:57;;;;;;;6.93;6.17;;;;;;;;;;5047457;28;20695;-42
2021/04/04 01:31:23;;;;;;;6.33;5.73;;;;;;;;;;5047537;28;20620;-42
2021/04/04 01:33:49;;;;;;;6.37;5.80;;;;;;;;;;5047432;28;20178;-43
2021/04/04 01:36:16;;;;;;;6.40;5.60;;;;;;;;;;5047903;28;20215;-42
2021/04/04 01:38:43;;;;;;;6.90;5.60;;;;;;;;;;5046375;28;20605;-43
2021/04/04 01:41:23;;;;;;;5.87;5.37;;;;;;;;;;5047332;28;20653;-42
2021/04/04 01:43:49;;;;;;;6.13;5.63;;;;;;;;;;5046974;28;20605;-42
2021/04/04 01:46:15;;;;;;;6.70;5.83;;;;;;;;;;5047389;28;20700;-42
2021/04/04 01:48:41;;;;;;;6.50;5.33;;;;;;;;;;5046661;28;20684;-42
2021/04/04 01:51:07;;;;;;;6.57;5.90;;;;;;;;;;5047601;28;20186;-41
2021/04/04 01:53:33;;;;;;;7.83;6.30;;;;;;;;;;5046583;28;20269;-41
2021/04/04 01:55:58;;;;;;;6.20;5.60;;;;;;;;;;5046538;28;20670;-42
2021/04/04 01:58:24;;;;;;;6.20;5.67;;;;;;;;;;5046950;28;20709;-41
2021/04/04 02:00:49;;;;;;;6.73;6.03;;;;;;;;;;5046941;28;20205;-42
2021/04/04 02:03:15;;;;;;;6.10;5.60;;;;;;;;;;5047202;28;20190;-42
2021/04/04 02:05:41;;;;;;;6.10;5.17;;;;;;;;;;5043502;28;20447;-44
2021/04/04 02:08:09;;;;;;;5.97;5.47;;;;;;;;;;5045670;28;20199;-42
2021/04/04 02:10:36;;;;;;;5.87;5.37;;;;;;;;;;5045892;28;21202;-42
2021/04/04 02:13:01;;;;;;;7.67;6.57;;;;;;;;;;5047123;28;20597;-42
2021/04/04 02:15:28;;;;;;;6.83;6.13;;;;;;;;;;5047006;28;21276;-42
2021/04/04 02:17:54;;;;;;;6.03;5.60;;;;;;;;;;5047251;28;20167;-42
2021/04/04 02:20:20;;;;;;;6.77;6.07;;;;;;;;;;5046855;28;20612;-43
2021/04/04 02:22:46;;;;;;;6.57;5.97;;;;;;;;;;5047579;28;20609;-41
2021/04/04 02:25:12;;;;;;;7.27;6.57;;;;;;;;;;5047826;28;21142;-41
2021/04/04 02:27:39;;;;;;;7.43;6.70;;;;;;;;;;5046364;28;20170;-42
2021/04/04 02:30:05;;;;;;;8.43;6.40;;;;;;;;;;5047489;28;20645;-42
2021/04/04 02:32:31;;;;;;;7.43;6.83;;;;;;;;;;5045783;28;20609;-42
2021/04/04 02:34:59;;;;;;;9.70;7.07;;;;;;;;;;5041660;28;20596;-42
2021/04/04 02:37:25;;;;;;;7.87;7.17;;;;;;;;;;5046373;28;20655;-42
2021/04/04 02:40:16;;;;;;;7.77;7.10;;;;;;;;;;5046123;28;20652;-42
2021/04/04 02:42:43;;;;;;;7.43;6.33;;;;;;;;;;5042721;28;21864;-42
2021/04/04 02:45:08;;;;;;;7.77;7.07;;;;;;;;;;5046163;28;20588;-42
2021/04/04 02:47:37;;;;;;;7.10;6.43;;;;;;;;;;5046946;28;20608;-42
2021/04/04 02:50:03;;;;;;;7.80;6.97;;;;;;;;;;5046824;28;20564;-43
2021/04/04 02:52:30;;;;;;;10.23;6.63;;;;;;;;;;5042472;28;20593;-43
2021/04/04 02:54:56;;;;;;;9.03;6.70;;;;;;;;;;5046362;28;20238;-42
2021/04/04 02:57:26;;;;;;;6.97;6.20;;;;;;;;;;5046867;28;20656;-42
2021/04/04 02:59:53;;;;;;;7.00;6.40;;;;;;;;;;5047031;28;20686;-42
2021/04/04 03:02:19;;;;;;;8.40;7.60;;;;;;;;;;5046278;28;20604;-42
2021/04/04 03:04:45;;;;;;;7.10;6.40;;;;;;;;;;5046026;28;20963;-42
2021/04/04 03:07:11;;;;;;;7.63;6.93;;;;;;;;;;5045430;28;20309;-41
2021/04/04 03:09:38;;;;;;;8.03;7.10;;;;;;;;;;5047176;28;20596;-42
2021/04/04 03:12:04;;;;;;;8.10;7.30;;;;;;;;;;5046851;28;20666;-41
2021/04/04 03:14:29;;;;;;;7.87;7.07;;;;;;;;;;5047099;28;20905;-41
2021/04/04 03:16:55;;;;;;;12.43;7.73;;;;;;;;;;5046556;28;20289;-41
2021/04/04 03:19:22;;;;;;;8.90;7.40;;;;;;;;;;5047061;28;20641;-41
2021/04/04 03:21:48;;;;;;;11.70;8.43;;;;;;;;;;5050335;28;20181;-41
2021/04/04 03:24:15;;;;;;;8.90;6.90;;;;;;;;;;5050015;28;20595;-41
2021/04/04 03:26:41;;;;;;;8.70;7.37;;;;;;;;;;5049714;28;20597;-41
2021/04/04 03:29:07;;;;;;;8.60;7.80;;;;;;;;;;5049426;28;20598;-41
2021/04/04 03:31:32;;;;;;;8.90;7.90;;;;;;;;;;5048817;28;20637;-41
2021/04/04 03:33:59;;;;;;;8.67;7.77;;;;;;;;;;5047985;28;20609;-41
2021/04/04 03:36:24;;;;;;;8.70;7.17;;;;;;;;;;5053883;28;20231;-41
2021/04/04 03:38:51;;;;;;;10.33;9.27;;;;;;;;;;5050215;28;21142;-42
2021/04/04 03:41:16;;;;;;;8.67;7.97;;;;;;;;;;5049021;28;20535;-42
2021/04/04 03:43:41;;;;;;;8.00;7.20;;;;;;;;;;5049059;28;20695;-42
2021/04/04 03:46:09;;;;;;;10.43;8.30;;;;;;;;;;5049888;28;20200;-42
2021/04/04 03:48:34;;;;;;;9.67;8.03;;;;;;;;;;5050029;28;20184;-42
2021/04/04 03:51:02;;;;;;;9.27;8.30;;;;;;;;;;5049715;28;20607;-42
2021/04/04 03:53:28;;;;;;;7.70;7.00;;;;;;;;;;5049594;28;20181;-42
2021/04/04 03:55:59;;;;;;;7.63;6.93;;;;;;;;;;5049749;28;20705;-42
2021/04/04 03:58:25;;;;;;;8.63;7.83;;;;;;;;;;5049220;28;20228;-42
2021/04/04 04:00:51;;;;;;;8.70;7.43;;;;;;;;;;5049482;28;20597;-42
2021/04/04 04:03:16;;;;;;;9.50;8.10;;;;;;;;;;5049456;28;21143;-43
2021/04/04 04:05:42;;;;;;;9.73;8.73;;;;;;;;;;5040854;28;20692;-42
2021/04/04 04:08:07;;;;;;;9.60;8.23;;;;;;;;;;5049927;28;20229;-42
2021/04/04 04:10:33;;;;;;;8.27;7.53;;;;;;;;;;5048601;28;20994;-42
2021/04/04 04:12:59;;;;;;;9.77;8.77;;;;;;;;;;5049443;28;20174;-41
2021/04/04 04:15:25;;;;;;;9.17;7.90;;;;;;;;;;5049097;28;20704;-42
2021/04/04 04:17:50;;;;;;;10.37;8.70;;;;;;;;;;5049316;28;20691;-42
2021/04/04 04:20:16;;;;;;;8.93;8.03;;;;;;;;;;5049605;28;20683;-41
2021/04/04 04:22:42;;;;;;;9.70;8.70;;;;;;;;;;5047763;28;20194;-41
2021/04/04 04:25:09;;;;;;;8.83;8.13;;;;;;;;;;5049417;28;20172;-41
2021/04/04 04:27:35;;;;;;;9.23;8.33;;;;;;;;;;5048205;28;20186;-42
2021/04/04 04:30:01;;;;;;;9.70;8.10;;;;;;;;;;5048425;28;20604;-41
2021/04/04 04:32:27;;;;;;;9.70;8.67;;;;;;;;;;5049114;28;21088;-41
2021/04/04 04:34:53;;;;;;;9.97;8.97;;;;;;;;;;5048662;28;20619;-42
2021/04/04 04:37:19;;;;;;;11.07;9.23;;;;;;;;;;5049288;28;20671;-41
2021/04/04 04:39:44;;;;;;;9.37;8.60;;;;;;;;;;5048511;28;21150;-42
2021/04/04 04:42:11;;;;;;;9.67;8.70;;;;;;;;;;5048815;28;20218;-41
2021/04/04 04:44:38;;;;;;;9.10;8.13;;;;;;;;;;5048510;28;20179;-46
2021/04/04 04:47:03;;;;;;;8.70;7.90;;;;;;;;;;5048565;28;20606;-41
2021/04/04 04:49:28;;;;;;;7.70;6.90;;;;;;;;;;5049117;28;20612;-41
2021/04/04 04:51:54;;;;;;;7.80;7.10;;;;;;;;;;5048477;28;20181;-43
2021/04/04 04:54:19;;;;;;;9.13;7.77;;;;;;;;;;5048866;28;20226;-42
2021/04/04 04:56:44;;;;;;;7.97;7.17;;;;;;;;;;5048453;28;20224;-43
2021/04/04 04:59:10;;;;;;;7.83;6.97;;;;;;;;;;5048595;28;20643;-42
2021/04/04 05:01:40;;;;;;;7.10;6.40;;;;;;;;;;5059555;28;20189;-42
2021/04/04 05:04:05;;;;;;;8.17;7.40;;;;;;;;;;5048163;28;20176;-42
2021/04/04 05:06:31;;;;;;;9.10;6.60;;;;;;;;;;5048410;28;20607;-43
2021/04/04 05:08:58;;;;;;;6.73;6.03;;;;;;;;;;5047133;28;20231;-42
2021/04/04 05:11:23;;;;;;;6.30;5.70;;;;;;;;;;5047943;28;20176;-42
2021/04/04 05:13:48;;;;;;;6.60;6.00;;;;;;;;;;5046892;28;21210;-42
2021/04/04 05:16:14;;;;;;;7.60;6.53;;;;;;;;;;5045893;28;20220;-43
2021/04/04 05:18:47;;;;;;;7.93;6.70;;;;;;;;;;5047822;28;20184;-43
2021/04/04 05:21:12;;;;;;;6.63;5.93;;;;;;;;;;5046252;28;20599;-43
2021/04/04 05:23:38;;;;;;;6.30;5.70;;;;;;;;;;5047901;28;20684;-43
2021/04/04 05:26:03;;;;;;;6.33;5.70;;;;;;;;;;5047126;28;20593;-42
2021/04/04 05:28:28;;;;;;;5.60;5.10;;;;;;;;;;5048438;28;20227;-42
2021/04/04 05:31:00;;;;;;;6.30;5.80;;;;;;;;;;5048056;28;20664;-40
2021/04/04 05:33:25;;;;;;;5.90;5.40;;;;;;;;;;5050087;28;20179;-41
2021/04/04 05:35:50;;;;;;;6.40;5.80;;;;;;;;;;5046921;28;20690;-42
2021/04/04 05:38:16;;;;;;;6.43;5.93;;;;;;;;;;5047469;28;20182;-43
2021/04/04 05:40:42;;;;;;;7.63;6.07;;;;;;;;;;5050094;28;20195;-41
2021/04/04 05:43:11;;;;;;;6.43;5.20;;;;;;;;;;5045686;28;20283;-42
2021/04/04 05:45:50;;;;;;;6.00;5.50;;;;;;;;;;5047461;28;20600;-43
2021/04/04 05:48:17;;;;;;;6.50;5.90;;;;;;;;;;5044244;28;20744;-42
2021/04/04 05:50:48;;;;;;;5.30;4.83;;;;;;;;;;5048510;28;20607;-41
2021/04/04 05:53:27;;;;;;;6.10;5.50;;;;;;;;;;5045759;28;20605;-41
2021/04/04 05:56:01;;;;;;;5.80;5.20;;;;;;;;;;5038529;28;20667;-42
2021/04/04 05:58:29;;;;;;;6.57;5.97;;;;;;;;;;5043745;28;20723;-44
2021/04/04 06:00:56;;;;;;;6.07;5.07;;;;;;;;;;5043553;28;20588;-43
2021/04/04 06:03:37;;;;;;;5.30;4.80;;;;;;;;;;5046569;28;21182;-43
2021/04/04 06:06:27;;;;;;;6.17;5.50;;;;;;;;;;5045113;28;20643;-43
2021/04/04 06:09:07;;;;;;;6.57;4.70;;;;;;;;;;5042416;28;20826;-42
2021/04/04 06:11:36;;;;;;;7.07;5.10;;;;;;;;;;5045771;28;20719;-42
2021/04/04 06:14:20;;;;;;;5.10;4.70;;;;;;;;;;5045711;28;21248;-42
2021/04/04 06:16:45;;;;;;;6.37;5.67;;;;;;;;;;5051239;28;20760;-42
2021/04/04 06:19:17;;;;;;;5.15;4.65;;;;;;;;;;5051606;28;20692;-43
2021/04/04 06:21:54;;;;;;;7.33;5.47;;;;;;;;;;5046516;28;20192;-42
2021/04/04 06:24:28;;;;;;;5.00;4.63;;;;;;;;;;5045709;28;21029;-42
2021/04/04 06:27:02;;;;;;;6.90;5.87;;;;;;;;;;5047358;28;20594;-41
2021/04/04 06:29:34;;;;;;;5.90;5.40;;;;;;;;;;5046938;28;20605;-41
2021/04/04 06:32:02;;;;;;;7.10;5.63;;;;;;;;;;5047053;28;20601;-42
2021/04/04 06:34:27;;;;;;;7.47;5.50;;;;;;;;;;5047093;28;21194;-43
2021/04/04 06:37:11;;;;;;;6.68;5.43;;;;;;;;;;5046723;28;21617;-43
2021/04/04 06:39:55;;;;;;;5.93;5.33;;;;;;;;;;5043984;28;20184;-42
2021/04/04 06:42:23;;;;;;;5.10;4.70;;;;;;;;;;5046983;28;20642;-42
2021/04/04 06:45:00;;;;;;;5.97;5.40;;;;;;;;;;5046898;28;20606;-42
2021/04/04 06:47:40;;;;;;;5.27;4.53;;;;;;;;;;5047339;28;20645;-42
2021/04/04 06:50:08;;;;;;;5.53;5.13;;;;;;;;;;5046912;28;20602;-43
2021/04/04 06:52:52;;;;;;;9.70;5.50;;;;;;;;;;5047310;28;20601;-43
2021/04/04 06:55:24;;;;;;;5.70;5.30;;;;;;;;;;5049624;28;20641;-42
2021/04/04 06:57:52;;;;;;;5.33;4.83;;;;;;;;;;5047870;28;20667;-42
2021/04/04 07:00:38;;;;;;;7.13;5.57;;;;;;;;;;5048762;28;20647;-41
2021/04/04 07:03:07;;;;;;;7.70;4.50;;;;;;;;;;5050697;28;20606;-42
2021/04/04 07:05:34;;;;;;;7.23;5.20;;;;;;;;;;5050682;28;20604;-43
2021/04/04 07:08:00;;;;;;;4.53;4.20;;;;;;;;;;5048830;28;20611;-43
2021/04/04 07:10:30;;;;;;;4.87;4.50;;;;;;;;;;5050749;28;20594;-43
2021/04/04 07:13:07;;;;;;;5.23;4.83;;;;;;;;;;5049887;28;20179;-43
2021/04/04 07:15:45;;;;;;;5.23;4.73;;;;;;;;;;5051030;28;20689;-41
2021/04/04 07:18:29;;;;;;;6.20;5.30;;;;;;;;;;5050573;28;20609;-42
2021/04/04 07:21:06;;;;;;;5.40;4.90;;;;;;;;;;5050196;28;20607;-42
2021/04/04 07:23:34;;;;;;;5.93;5.13;;;;;;;;;;5045556;28;20587;-42
2021/04/04 07:26:02;;;;;;;5.47;4.97;;;;;;;;;;5051002;28;20598;-43
2021/04/04 07:28:27;;;;;;;5.67;5.17;;;;;;;;;;5049906;28;20957;-42
2021/04/04 07:31:00;;;;;;;6.80;4.65;;;;;;;;;;5049467;28;20968;-42
2021/04/04 07:33:43;;;;;;;5.10;4.70;;;;;;;;;;5046638;28;21955;-42
2021/04/04 07:36:29;;;;;;;5.10;4.63;;;;;;;;;;5035297;28;20642;-43
2021/04/04 07:38:57;;;;;;;5.30;4.80;;;;;;;;;;5046469;28;20602;-43
2021/04/04 07:41:25;;;;;;;5.77;5.17;;;;;;;;;;5048911;28;20619;-42
2021/04/04 07:43:56;;;;;;;5.20;4.80;;;;;;;;;;5050520;28;20598;-43
2021/04/04 07:46:23;;;;;;;6.70;5.33;;;;;;;;;;5049352;28;20611;-43
2021/04/04 07:48:57;;;;;;;5.73;5.20;;;;;;;;;;5048951;28;21408;-43
2021/04/04 07:51:25;;;;;;;5.70;5.00;;;;;;;;;;5048331;28;21010;-42
2021/04/04 07:54:02;;;;;;;5.40;4.90;;;;;;;;;;5045279;28;20602;-43
2021/04/04 07:56:46;;;;;;;5.80;5.30;;;;;;;;;;5045815;28;20651;-42
2021/04/04 07:59:11;;;;;;;5.30;4.90;;;;;;;;;;5042513;28;20609;-47
2021/04/04 08:01:38;;;;;;;5.03;4.63;;;;;;;;;;5048010;28;20596;-41
2021/04/04 08:04:16;;;;;;;5.67;5.17;;;;;;;;;;5048838;28;20706;-41
2021/04/04 08:06:43;;;;;;;6.47;5.03;;;;;;;;;;5040842;28;20595;-41
2021/04/04 08:09:08;;;;;;;5.70;4.93;;;;;;;;;;5049204;28;20695;-43
2021/04/04 08:11:52;;;;;;;6.23;5.63;;;;;;;;;;5044273;28;20713;-41
2021/04/04 08:14:20;;;;;;;5.17;4.60;;;;;;;;;;5044129;28;20172;-42
2021/04/04 08:16:57;;;;;;;5.03;4.63;;;;;;;;;;5049326;28;20744;-42
2021/04/04 08:19:22;;;;;;;4.90;4.50;;;;;;;;;;5045953;28;20655;-42
2021/04/04 08:21:53;;;;;;;5.30;4.80;;;;;;;;;;5046154;28;21138;-43
2021/04/04 08:24:28;;;;;;;5.57;5.17;;;;;;;;;;5049314;28;20176;-42
2021/04/04 08:26:59;;;;;;;4.90;4.50;;;;;;;;;;5045814;28;20585;-43
2021/04/04 08:29:34;;;;;;;5.33;4.83;;;;;;;;;;5046838;28;20608;-42
2021/04/04 08:32:05;;;;;;;5.67;5.07;;;;;;;;;;5046836;28;21152;-43
2021/04/04 08:34:37;;;;;;;5.77;4.87;;;;;;;;;;5049180;28;20662;-43
2021/04/04 08:37:04;;;;;;;5.70;5.20;;;;;;;;;;5040875;28;21019;-42
2021/04/04 08:39:31;;;;;;;5.43;4.90;;;;;;;;;;5037802;28;20607;-43
2021/04/04 08:41:57;;;;;;;7.00;4.80;;;;;;;;;;5046706;28;20698;-43
2021/04/04 08:44:43;;;;;;;4.00;3.70;;;;;;;;;;5045096;28;20607;-43
2021/04/04 08:47:19;;;;;;;4.60;3.70;;;;;;;;;;5047184;28;20629;-43
2021/04/04 08:49:45;;;;;;;4.17;3.87;;;;;;;;;;5047386;28;20585;-43
2021/04/04 08:52:17;;;;;;;4.43;4.03;;;;;;;;;;5046620;28;20696;-42
2021/04/04 08:54:43;;;;;;;4.13;3.73;;;;;;;;;;5039464;28;20682;-43
2021/04/04 08:57:09;;;;;;;5.03;4.40;;;;;;;;;;5039003;28;21269;-44
2021/04/04 08:59:35;;;;;;;4.73;4.33;;;;;;;;;;5048588;28;20593;-43
2021/04/04 09:02:10;;;;;;;3.93;3.63;;;;;;;;;;5054719;28;20174;-42
2021/04/04 09:04:39;;;;;;;4.63;4.23;;;;;;;;;;5046375;28;20711;-42
2021/04/04 09:07:05;;;;;;;4.20;3.83;;;;;;;;;;5037870;28;22353;-42
2021/04/04 09:09:33;;;;;;;4.47;3.90;;;;;;;;;;5047760;28;20683;-43
2021/04/04 09:11:58;;;;;;;4.20;3.60;;;;;;;;;;5044994;28;20615;-42
2021/04/04 09:14:25;;;;;;;4.60;4.20;;;;;;;;;;5048159;28;20594;-41
2021/04/04 09:16:55;;;;;;;4.07;3.67;;;;;;;;;;5039984;28;20264;-41
2021/04/04 09:19:28;;;;;;;4.00;3.60;;;;;;;;;;5047558;28;20604;-41
2021/04/04 09:21:53;;;;;;;4.20;3.80;;;;;;;;;;5049175;28;20596;-42
2021/04/04 09:24:18;;;;;;;3.87;3.57;;;;;;;;;;5045859;28;20981;-42
2021/04/04 09:26:44;;;;;;;4.20;3.90;;;;;;;;;;5046978;28;20181;-42
2021/04/04 09:29:13;;;;;;;3.40;3.10;;;;;;;;;;5047477;28;20235;-42
2021/04/04 09:31:39;;;;;;;2.87;2.63;;;;;;;;;;5047805;28;20697;-42
2021/04/04 09:34:07;;;;;;;4.63;3.40;;;;;;;;;;5045309;28;20977;-42
2021/04/04 09:36:39;;;;;;;4.67;2.83;;;;;;;;;;5043545;28;20223;-42
2021/04/04 09:39:05;;;;;;;3.10;2.90;;;;;;;;;;5047184;28;20711;-43
2021/04/04 09:41:31;;;;;;;3.20;2.90;;;;;;;;;;5048033;28;20705;-43
2021/04/04 09:43:56;;;;;;;2.77;2.57;;;;;;;;;;5047164;28;20163;-42
2021/04/04 09:46:21;;;;;;;2.85;2.65;;;;;;;;;;5046809;28;20599;-42
2021/04/04 09:48:46;;;;;;;3.17;2.50;;;;;;;;;;5038744;28;20175;-42
2021/04/04 09:51:14;;;;;;;3.53;3.00;;;;;;;;;;5040233;28;20245;-42
2021/04/04 09:53:41;;;;;;;3.90;3.50;;;;;;;;;;5047710;28;20663;-42
2021/04/04 09:56:16;;;;;;;2.97;2.77;;;;;;;;;;5046952;28;20664;-43
2021/04/04 09:58:43;;;;;;;3.43;3.03;;;;;;;;;;5046930;28;20629;-42
2021/04/04 10:01:21;;;;;;;3.63;2.83;;;;;;;;;;5047093;28;20632;-42
2021/04/04 10:03:56;;;;;;;5.20;3.37;;;;;;;;;;5048326;28;20595;-42
2021/04/04 10:06:21;;;;;;;5.33;3.07;;;;;;;;;;5047313;28;20631;-42
2021/04/04 10:08:54;;;;;;;3.20;2.90;;;;;;;;;;5046202;28;20598;-42
2021/04/04 10:11:20;;;;;;;3.73;2.93;;;;;;;;;;5047099;28;20188;-42
2021/04/04 10:13:45;;;;;;;2.97;2.77;;;;;;;;;;5047360;28;21336;-42
2021/04/04 10:16:16;;;;;;;2.73;2.53;;;;;;;;;;5047505;28;20738;-42
2021/04/04 10:18:58;;;;;;;3.70;3.40;;;;;;;;;;5047496;28;20251;-42
2021/04/04 10:21:23;;;;;;;3.40;3.10;;;;;;;;;;5046802;28;21215;-42
2021/04/04 10:23:50;;;;;;;3.72;3.40;;;;;;;;;;5047016;28;20603;-42
2021/04/04 10:26:18;;;;;;;4.00;3.60;;;;;;;;;;5047431;28;20371;-42
2021/04/04 10:28:51;;;;;;;3.20;3.00;;;;;;;;;;5048977;28;20612;-42
2021/04/04 10:31:17;;;;;;;3.10;2.90;;;;;;;;;;5051225;28;20609;-42
2021/04/04 10:33:42;;;;;;;5.00;2.93;;;;;;;;;;5051629;28;20592;-42
2021/04/04 10:36:12;;;;;;;4.30;3.20;;;;;;;;;;5050626;28;20259;-42
2021/04/04 10:38:37;;;;;;;3.20;2.97;;;;;;;;;;5043382;28;20239;-42
2021/04/04 10:41:02;;;;;;;3.33;3.03;;;;;;;;;;5051164;28;20652;-41
2021/04/04 10:43:35;;;;;;;3.13;2.73;;;;;;;;;;5051157;28;20227;-41
2021/04/04 10:46:02;;;;;;;3.00;2.80;;;;;;;;;;5051369;28;20280;-42
2021/04/04 10:48:28;;;;;;;2.83;2.63;;;;;;;;;;5050950;28;20597;-41
2021/04/04 10:50:53;;;;;;;3.00;2.80;;;;;;;;;;5050819;28;20600;-42
2021/04/04 10:53:20;;;;;;;3.50;3.20;;;;;;;;;;5050635;28;20603;-42
2021/04/04 10:55:45;;;;;;;3.70;3.40;;;;;;;;;;5051048;28;20214;-42
2021/04/04 10:58:12;;;;;;;2.73;2.53;;;;;;;;;;5050686;28;20923;-42
2021/04/04 11:00:38;;;;;;;3.80;3.40;;;;;;;;;;5050006;28;20304;-42
2021/04/04 11:03:03;;;;;;;3.20;2.83;;;;;;;;;;5050928;28;20582;-43
2021/04/04 11:05:29;;;;;;;3.27;2.97;;;;;;;;;;5050866;28;20260;-42
2021/04/04 11:07:54;;;;;;;3.08;2.78;;;;;;;;;;5050188;28;20187;-42
2021/04/04 11:10:19;;;;;;;3.20;3.00;;;;;;;;;;5050574;28;20179;-42
2021/04/04 11:12:45;;;;;;;6.97;3.20;;;;;;;;;;5050277;28;20642;-43
2021/04/04 11:15:13;;;;;;;4.30;2.70;;;;;;;;;;5048730;28;20737;-42
2021/04/04 11:17:38;;;;;;;5.93;3.30;;;;;;;;;;5047604;28;20219;-42
2021/04/04 11:20:05;;;;;;;3.90;3.43;;;;;;;;;;5050478;28;20595;-42
2021/04/04 11:22:32;;;;;;;3.90;3.60;;;;;;;;;;5050947;28;20597;-42
2021/04/04 11:25:17;;;;;;;4.93;4.07;;;;;;;;;;5050557;28;20617;-42
2021/04/04 11:27:47;;;;;;;3.83;3.53;;;;;;;;;;5048526;28;20594;-43
2021/04/04 11:30:16;;;;;;;4.93;4.13;;;;;;;;;;5041656;28;20629;-43
2021/04/04 11:32:42;;;;;;;4.97;3.50;;;;;;;;;;5049808;28;20600;-42
2021/04/04 11:35:09;;;;;;;4.20;3.80;;;;;;;;;;5050290;28;20961;-42
2021/04/04 11:37:35;;;;;;;5.10;3.33;;;;;;;;;;5049646;28;20649;-43
2021/04/04 11:40:10;;;;;;;5.33;4.30;;;;;;;;;;5046019;28;20597;-40
2021/04/04 11:42:35;;;;;;;4.70;4.30;;;;;;;;;;5049058;28;20603;-43
2021/04/04 11:45:00;;;;;;;5.00;4.07;;;;;;;;;;5046393;28;20596;-42
2021/04/04 11:47:25;;;;;;;4.30;3.88;;;;;;;;;;5050068;28;20217;-42
2021/04/04 11:49:51;;;;;;;6.97;4.38;;;;;;;;;;5043224;28;20181;-42
2021/04/04 11:52:16;;;;;;;5.53;4.33;;;;;;;;;;5045987;28;20196;-42
2021/04/04 11:54:41;;;;;;;4.47;4.10;;;;;;;;;;5042386;28;20241;-43
2021/04/04 11:57:07;;;;;;;5.57;3.97;;;;;;;;;;5041860;28;20232;-42
2021/04/04 11:59:32;;;;;;;5.90;4.60;;;;;;;;;;5036260;28;20183;-43
2021/04/04 12:01:57;;;;;;;5.13;4.67;;;;;;;;;;5047981;28;20177;-43
2021/04/04 12:04:31;;;;;;;5.18;4.53;;;;;;;;;;5049222;28;20176;-42
2021/04/04 12:07:01;;;;;;;5.80;5.00;;;;;;;;;;5049210;28;20181;-41
2021/04/04 12:09:26;;;;;;;4.43;3.50;;;;;;;;;;5049323;28;20999;-42
2021/04/04 12:11:51;;;;;;;5.03;4.00;;;;;;;;;;5042108;28;20593;-42
2021/04/04 12:14:17;;;;;;;4.65;4.25;;;;;;;;;;5049143;28;20675;-42
2021/04/04 12:16:45;;;;;;;7.33;4.60;;;;;;;;;;5048890;28;20201;-42
2021/04/04 12:19:11;;;;;;;7.40;5.00;;;;;;;;;;5049181;28;20171;-42
2021/04/04 12:21:47;;;;;;;4.27;3.87;;;;;;;;;;5048808;28;20600;-42
2021/04/04 12:24:12;;;;;;;4.30;4.00;;;;;;;;;;5048890;28;20636;-42
2021/04/04 12:26:37;;;;;;;4.18;3.83;;;;;;;;;;5048752;28;20605;-42
2021/04/04 12:29:02;;;;;;;4.63;4.23;;;;;;;;;;5047860;28;20527;-41
2021/04/04 12:31:28;;;;;;;6.87;4.53;;;;;;;;;;5048347;28;20176;-42
2021/04/04 12:33:53;;;;;;;6.03;4.03;;;;;;;;;;5047966;28;20263;-43
2021/04/04 12:36:18;;;;;;;4.33;4.03;;;;;;;;;;5048680;28;20659;-43
2021/04/04 12:38:44;;;;;;;4.82;3.85;;;;;;;;;;5047688;28;20775;-43
2021/04/04 12:41:09;;;;;;;4.80;4.40;;;;;;;;;;5047798;28;20190;-42
2021/04/04 12:43:38;;;;;;;4.53;4.13;;;;;;;;;;5047611;28;21220;-44
2021/04/04 12:46:08;;;;;;;4.13;3.73;;;;;;;;;;5048041;28;20269;-43
2021/04/04 12:48:38;;;;;;;4.80;4.40;;;;;;;;;;5048503;28;20597;-43
2021/04/04 12:51:04;;;;;;;4.20;3.90;;;;;;;;;;5047535;28;20599;-43
2021/04/04 12:53:33;;;;;;;5.70;5.13;;;;;;;;;;5047768;28;20608;-42
2021/04/04 12:55:59;;;;;;;4.93;4.50;;;;;;;;;;5047531;28;20333;-42
2021/04/04 12:58:35;;;;;;;4.50;4.20;;;;;;;;;;5047915;28;20961;-43
2021/04/04 13:01:01;;;;;;;4.60;4.20;;;;;;;;;;5047544;28;20639;-42
2021/04/04 13:03:36;;;;;;;4.73;3.97;;;;;;;;;;5048501;28;20586;-42
2021/04/04 13:06:02;;;;;;;4.33;4.03;;;;;;;;;;5046981;28;20867;-42
2021/04/04 13:08:32;;;;;;;5.33;4.40;;;;;;;;;;5047553;28;20590;-42
2021/04/04 13:10:58;;;;;;;5.97;5.03;;;;;;;;;;5047885;28;20183;-43
2021/04/04 13:13:27;;;;;;;5.47;4.10;;;;;;;;;;5047733;28;21295;-42
2021/04/04 13:15:55;;;;;;;4.67;4.20;;;;;;;;;;5039680;28;20649;-42
2021/04/04 13:18:20;;;;;;;5.23;4.83;;;;;;;;;;5047706;28;20621;-41
2021/04/04 13:20:46;;;;;;;6.17;5.67;;;;;;;;;;5047460;28;20697;-43
2021/04/04 13:23:12;;;;;;;5.10;4.60;;;;;;;;;;5047040;28;20186;-42
2021/04/04 13:25:37;;;;;;;5.70;4.85;;;;;;;;;;5047787;28;20601;-42
2021/04/04 13:28:02;;;;;;;5.47;4.97;;;;;;;;;;5047045;28;20200;-42
2021/04/04 13:30:28;;;;;;;5.50;4.83;;;;;;;;;;5047370;28;20493;-42
2021/04/04 13:32:54;;;;;;;9.27;5.93;;;;;;;;;;5046436;28;20717;-43
2021/04/04 13:35:22;;;;;;;5.93;5.43;;;;;;;;;;5047222;28;20762;-42
2021/04/04 13:37:48;;;;;;;6.27;5.77;;;;;;;;;;5046673;28;20970;-43
2021/04/04 13:40:13;;;;;;;8.25;5.85;;;;;;;;;;5046538;28;20616;-44
2021/04/04 13:42:48;;;;;;;5.77;5.23;;;;;;;;;;5047022;28;20171;-43
2021/04/04 13:45:52;;;;;;;5.90;5.40;;;;;;;;;;5044701;28;20181;-43
2021/04/04 13:48:28;;;;;;;6.83;5.40;;;;;;;;;;5002290;28;21258;-44
2021/04/04 13:50:53;;;;;;;5.83;5.20;;;;;;;;;;5004514;28;21190;-42
2021/04/04 13:53:21;;;;;;;6.40;5.60;;;;;;;;;;5019246;28;20613;-43
2021/04/04 13:55:47;;;;;;;5.90;5.50;;;;;;;;;;5047270;28;20218;-41
2021/04/04 13:58:32;;;;;;;6.13;5.53;;;;;;;;;;5047109;28;20659;-43
2021/04/04 14:00:57;;;;;;;8.60;5.30;;;;;;;;;;5046900;28;20597;-42
2021/04/04 14:03:27;;;;;;;6.03;5.50;;;;;;;;;;5047121;28;20603;-43
2021/04/04 14:06:02;;;;;;;6.70;5.73;;;;;;;;;;5047830;28;20579;-44
2021/04/04 14:08:28;;;;;;;7.07;5.70;;;;;;;;;;5040170;28;21121;-41
2021/04/04 14:10:53;;;;;;;6.17;5.37;;;;;;;;;;5047210;28;20617;-40
2021/04/04 14:13:18;;;;;;;6.90;6.20;;;;;;;;;;5046746;28;20248;-42
2021/04/04 14:15:43;;;;;;;6.80;6.15;;;;;;;;;;5047130;28;20175;-42
2021/04/04 14:18:08;;;;;;;7.77;7.07;;;;;;;;;;5047738;28;20170;-42
2021/04/04 14:20:33;;;;;;;7.53;6.83;;;;;;;;;;5047225;28;20209;-43
2021/04/04 14:22:59;;;;;;;8.10;6.95;;;;;;;;;;5046655;28;20181;-43
2021/04/04 14:25:24;;;;;;;8.07;7.30;;;;;;;;;;5046245;28;20206;-42
2021/04/04 14:27:49;;;;;;;9.30;7.53;;;;;;;;;;5043961;28;20526;-43
2021/04/04 14:30:17;;;;;;;9.00;8.13;;;;;;;;;;5043101;28;20194;-42
2021/04/04 14:32:42;;;;;;;9.67;8.87;;;;;;;;;;5042080;28;20189;-43
2021/04/04 14:35:08;;;;;;;9.67;8.67;;;;;;;;;;5047572;28;20601;-42
2021/04/04 14:37:35;;;;;;;9.23;8.27;;;;;;;;;;5045970;28;20273;-42
2021/04/04 14:40:00;;;;;;;9.10;8.20;;;;;;;;;;5045916;28;20720;-43
2021/04/04 14:42:25;;;;;;;10.13;9.38;;;;;;;;;;5042792;28;20677;-42
2021/04/04 14:44:50;;;;;;;12.52;11.02;;;;;;;;;;5047067;28;20544;-41
2021/04/04 14:47:15;;;;;;;12.23;11.25;;;;;;;;;;5046953;28;20175;-43
2021/04/04 14:49:40;;;;;;;14.23;12.82;;;;;;;;;;5046442;28;20553;-43